sensor_id;sensor_type;location;lat;lon;timestamp;pressure;altitude;pressure_sealevel;temperature;humidity
3444;BME280;1736;52.068;6.968;2023-01-24T00:01:26;103342.41;;;2.56;100.00
3444;BME280;1736;52.068;6.968;2023-01-24T00:03:52;103354.69;;;2.51;100.00
3444;BME280;1736;52.068;6.968;2023-01-24T00:06:21;103352.09;;;2.48;99.87
3444;BME280;1736;52.068;6.968;2023-01-24T00:08:47;103357.25;;;2.57;100.00
3444;BME280;1736;52.068;6.968;2023-01-24T00:11:14;103348.53;;;2.55;99.44
3444;BME280;1736;52.068;6.968;2023-01-24T00:13:40;103338.06;;;2.56;99.76
3444;BME280;1736;52.068;6.968;2023-01-24T00:16:09;103331.97;;;2.50;100.00
3444;BME280;1736;52.068;6.968;2023-01-24T00:18:38;103338.91;;;2.57;100.00
3444;BME280;1736;52.068;6.968;2023-01-24T00:21:07;103339.81;;;2.54;99.63
3444;BME280;1736;52.068;6.968;2023-01-24T00:23:36;103332.81;;;2.53;100.00
3444;BME280;1736;52.068;6.968;2023-01-24T00:26:03;103341.53;;;2.57;99.91
3444;BME280;1736;52.068;6.968;2023-01-24T00:28:30;103327.47;;;2.64;99.10
3444;BME280;1736;52.068;6.968;2023-01-24T00:30:56;103337.16;;;2.57;98.00
3444;BME280;1736;52.068;6.968;2023-01-24T00:33:23;103333.72;;;2.52;96.00
3444;BME280;1736;52.068;6.968;2023-01-24T00:35:50;103340.59;;;2.61;95.62
3444;BME280;1736;52.068;6.968;2023-01-24T00:38:17;103330.22;;;2.52;94.85
3444;BME280;1736;52.068;6.968;2023-01-24T00:40:45;103331.00;;;2.61;94.65
3444;BME280;1736;52.068;6.968;2023-01-24T00:43:11;103326.69;;;2.56;93.54
3444;BME280;1736;52.068;6.968;2023-01-24T00:45:39;103331.91;;;2.59;92.39
3444;BME280;1736;52.068;6.968;2023-01-24T00:48:06;103323.09;;;2.64;92.77
3444;BME280;1736;52.068;6.968;2023-01-24T00:50:33;103323.03;;;2.72;92.29
3444;BME280;1736;52.068;6.968;2023-01-24T00:53:00;103323.97;;;2.66;91.85
3444;BME280;1736;52.068;6.968;2023-01-24T00:55:27;103326.59;;;2.66;92.16
3444;BME280;1736;52.068;6.968;2023-01-24T00:57:55;103317.00;;;2.62;91.82
3444;BME280;1736;52.068;6.968;2023-01-24T01:00:22;103317.00;;;2.64;92.22
3444;BME280;1736;52.068;6.968;2023-01-24T01:02:49;103310.03;;;2.63;92.28
3444;BME280;1736;52.068;6.968;2023-01-24T01:05:16;103314.38;;;2.64;91.67
3444;BME280;1736;52.068;6.968;2023-01-24T01:07:43;103311.75;;;2.62;92.31
3444;BME280;1736;52.068;6.968;2023-01-24T01:10:10;103318.75;;;2.60;91.93
3444;BME280;1736;52.068;6.968;2023-01-24T01:12:37;103318.75;;;2.60;90.48
3444;BME280;1736;52.068;6.968;2023-01-24T01:15:06;103317.03;;;2.58;90.78
3444;BME280;1736;52.068;6.968;2023-01-24T01:17:32;103319.63;;;2.61;91.04
3444;BME280;1736;52.068;6.968;2023-01-24T01:19:59;103312.69;;;2.54;91.14
3444;BME280;1736;52.068;6.968;2023-01-24T01:22:26;103321.44;;;2.56;91.24
3444;BME280;1736;52.068;6.968;2023-01-24T01:24:52;103318.03;;;2.48;90.64
3444;BME280;1736;52.068;6.968;2023-01-24T01:27:19;103324.03;;;2.57;90.46
3444;BME280;1736;52.068;6.968;2023-01-24T01:29:45;103318.75;;;2.60;90.23
3444;BME280;1736;52.068;6.968;2023-01-24T01:32:13;103326.69;;;2.56;90.08
3444;BME280;1736;52.068;6.968;2023-01-24T01:34:40;103324.16;;;2.47;90.83
3444;BME280;1736;52.068;6.968;2023-01-24T01:37:06;103324.09;;;2.50;90.84
3444;BME280;1736;52.068;6.968;2023-01-24T01:39:33;103318.84;;;2.53;91.39
3444;BME280;1736;52.068;6.968;2023-01-24T01:41:59;103314.50;;;2.49;90.66
3444;BME280;1736;52.068;6.968;2023-01-24T01:44:28;103310.09;;;2.54;90.97
3444;BME280;1736;52.068;6.968;2023-01-24T01:47:18;103312.78;;;2.46;90.99
3444;BME280;1736;52.068;6.968;2023-01-24T01:49:49;103317.13;;;2.49;91.00
3444;BME280;1736;52.068;6.968;2023-01-24T01:52:17;103325.06;;;2.40;90.83
3444;BME280;1736;52.068;6.968;2023-01-24T01:54:46;103312.88;;;2.37;90.80
3444;BME280;1736;52.068;6.968;2023-01-24T01:57:16;103308.34;;;2.53;90.38
3444;BME280;1736;52.068;6.968;2023-01-24T01:59:47;103314.56;;;2.43;90.45
3444;BME280;1736;52.068;6.968;2023-01-24T02:02:19;103316.31;;;2.44;90.12
3444;BME280;1736;52.068;6.968;2023-01-24T02:04:49;103308.44;;;2.42;90.35
3444;BME280;1736;52.068;6.968;2023-01-24T02:07:21;103307.63;;;2.36;91.12
3444;BME280;1736;52.068;6.968;2023-01-24T02:09:49;103306.69;;;2.44;90.07
3444;BME280;1736;52.068;6.968;2023-01-24T02:12:19;103312.88;;;2.39;89.53
3444;BME280;1736;52.068;6.968;2023-01-24T02:14:47;103317.25;;;2.35;89.76
3444;BME280;1736;52.068;6.968;2023-01-24T02:17:35;103305.03;;;2.34;90.38
3444;BME280;1736;52.068;6.968;2023-01-24T02:20:09;103308.53;;;2.36;90.32
3444;BME280;1736;52.068;6.968;2023-01-24T02:22:45;103297.88;;;2.50;90.76
3444;BME280;1736;52.068;6.968;2023-01-24T02:25:22;103299.75;;;2.40;90.72
3444;BME280;1736;52.068;6.968;2023-01-24T02:27:54;103305.00;;;2.39;90.54
3444;BME280;1736;52.068;6.968;2023-01-24T02:30:21;103303.22;;;2.41;91.04
3444;BME280;1736;52.068;6.968;2023-01-24T02:32:48;103306.63;;;2.50;90.21
3444;BME280;1736;52.068;6.968;2023-01-24T02:35:30;103309.34;;;2.43;90.23
3444;BME280;1736;52.068;6.968;2023-01-24T02:37:59;103310.16;;;2.45;89.99
3444;BME280;1736;52.068;6.968;2023-01-24T02:40:27;103306.72;;;2.41;90.80
3444;BME280;1736;52.068;6.968;2023-01-24T02:42:58;103302.41;;;2.36;90.79
3444;BME280;1736;52.068;6.968;2023-01-24T02:45:27;103309.44;;;2.32;91.24
3444;BME280;1736;52.068;6.968;2023-01-24T02:47:55;103305.00;;;2.39;91.23
3444;BME280;1736;52.068;6.968;2023-01-24T02:50:26;103298.00;;;2.38;91.32
3444;BME280;1736;52.068;6.968;2023-01-24T02:52:53;103302.41;;;2.34;91.51
3444;BME280;1736;52.068;6.968;2023-01-24T02:55:37;103301.50;;;2.40;91.39
3444;BME280;1736;52.068;6.968;2023-01-24T02:58:26;103304.09;;;2.40;91.54
3444;BME280;1736;52.068;6.968;2023-01-24T03:00:52;103301.50;;;2.35;90.96
3444;BME280;1736;52.068;6.968;2023-01-24T03:03:18;103297.16;;;2.36;91.40
3444;BME280;1736;52.068;6.968;2023-01-24T03:05:45;103290.13;;;2.41;90.31
3444;BME280;1736;52.068;6.968;2023-01-24T03:08:23;103299.75;;;2.40;90.66
3444;BME280;1736;52.068;6.968;2023-01-24T03:10:50;103291.94;;;2.33;91.29
3444;BME280;1736;52.068;6.968;2023-01-24T03:13:17;103298.88;;;2.37;91.79
3444;BME280;1736;52.068;6.968;2023-01-24T03:16:03;103302.44;;;2.30;91.69
3444;BME280;1736;52.068;6.968;2023-01-24T03:18:47;103299.81;;;2.30;90.73
3444;BME280;1736;52.068;6.968;2023-01-24T03:21:32;103306.91;;;2.20;90.62
3444;BME280;1736;52.068;6.968;2023-01-24T03:24:16;103301.69;;;2.13;91.58
3444;BME280;1736;52.068;6.968;2023-01-24T03:27:01;103294.72;;;2.15;91.68
3444;BME280;1736;52.068;6.968;2023-01-24T03:29:45;103298.16;;;2.21;92.00
3444;BME280;1736;52.068;6.968;2023-01-24T03:32:30;103286.78;;;2.21;91.20
3444;BME280;1736;52.068;6.968;2023-01-24T03:35:15;103293.78;;;2.22;91.29
3444;BME280;1736;52.068;6.968;2023-01-24T03:37:41;103289.50;;;2.12;90.99
3444;BME280;1736;52.068;6.968;2023-01-24T03:40:25;103298.16;;;2.18;91.19
3444;BME280;1736;52.068;6.968;2023-01-24T03:42:52;103292.94;;;2.15;91.50
3444;BME280;1736;52.068;6.968;2023-01-24T03:45:19;103300.72;;;2.26;91.23
3444;BME280;1736;52.068;6.968;2023-01-24T03:47:50;103297.34;;;2.15;91.65
3444;BME280;1736;52.068;6.968;2023-01-24T03:50:32;103297.34;;;2.12;92.01
3444;BME280;1736;52.068;6.968;2023-01-24T03:53:17;103298.16;;;2.18;91.63
3444;BME280;1736;52.068;6.968;2023-01-24T03:55:45;103302.59;;;2.12;91.94
3444;BME280;1736;52.068;6.968;2023-01-24T03:58:12;103305.22;;;2.09;91.75
3444;BME280;1736;52.068;6.968;2023-01-24T04:00:39;103301.78;;;2.05;92.31
3444;BME280;1736;52.068;6.968;2023-01-24T04:03:07;103298.22;;;2.12;91.98
3444;BME280;1736;52.068;6.968;2023-01-24T04:05:34;103290.31;;;2.17;92.29
3444;BME280;1736;52.068;6.968;2023-01-24T04:08:02;103300.72;;;2.26;92.27
3444;BME280;1736;52.068;6.968;2023-01-24T04:10:29;103299.94;;;2.18;91.74
3444;BME280;1736;52.068;6.968;2023-01-24T04:12:56;103308.72;;;2.11;91.84
3444;BME280;1736;52.068;6.968;2023-01-24T04:15:25;103306.13;;;2.08;92.77
3444;BME280;1736;52.068;6.968;2023-01-24T04:17:54;103300.88;;;2.08;92.24
3444;BME280;1736;52.068;6.968;2023-01-24T04:20:23;103311.28;;;2.17;92.65
3444;BME280;1736;52.068;6.968;2023-01-24T04:22:50;103306.91;;;2.19;92.21
3444;BME280;1736;52.068;6.968;2023-01-24T04:25:17;103299.97;;;2.13;91.83
3444;BME280;1736;52.068;6.968;2023-01-24T04:27:44;103313.09;;;2.07;92.67
3444;BME280;1736;52.068;6.968;2023-01-24T04:30:12;103308.72;;;2.11;92.53
3444;BME280;1736;52.068;6.968;2023-01-24T04:32:39;103310.50;;;2.06;93.11
3444;BME280;1736;52.068;6.968;2023-01-24T04:35:06;103308.75;;;2.06;92.94
3444;BME280;1736;52.068;6.968;2023-01-24T04:37:34;103308.72;;;2.12;92.73
3444;BME280;1736;52.068;6.968;2023-01-24T04:40:01;103308.63;;;2.23;92.06
3444;BME280;1736;52.068;6.968;2023-01-24T04:42:28;103314.81;;;2.13;92.02
3444;BME280;1736;52.068;6.968;2023-01-24T04:44:54;103306.94;;;2.11;91.75
3444;BME280;1736;52.068;6.968;2023-01-24T04:47:21;103307.84;;;2.12;91.52
3444;BME280;1736;52.068;6.968;2023-01-24T04:49:47;103293.91;;;2.07;91.45
3444;BME280;1736;52.068;6.968;2023-01-24T04:52:14;103302.56;;;2.15;91.12
3444;BME280;1736;52.068;6.968;2023-01-24T04:54:42;103308.72;;;2.09;91.16
3444;BME280;1736;52.068;6.968;2023-01-24T04:57:10;103306.03;;;2.15;91.55
3444;BME280;1736;52.068;6.968;2023-01-24T04:59:37;103306.94;;;2.14;91.31
3444;BME280;1736;52.068;6.968;2023-01-24T05:02:04;103318.38;;;2.06;91.27
3444;BME280;1736;52.068;6.968;2023-01-24T05:04:31;103313.16;;;2.03;91.27
3444;BME280;1736;52.068;6.968;2023-01-24T05:06:57;103308.81;;;2.00;91.07
3444;BME280;1736;52.068;6.968;2023-01-24T05:09:24;103303.50;;;2.03;91.78
3444;BME280;1736;52.068;6.968;2023-01-24T05:11:52;103306.19;;;1.99;91.53
3444;BME280;1736;52.068;6.968;2023-01-24T05:14:19;103307.91;;;2.04;92.16
3444;BME280;1736;52.068;6.968;2023-01-24T05:16:45;103302.69;;;1.97;91.74
3444;BME280;1736;52.068;6.968;2023-01-24T05:19:12;103306.09;;;2.14;92.13
3444;BME280;1736;52.068;6.968;2023-01-24T05:21:38;103309.63;;;2.04;91.93
3444;BME280;1736;52.068;6.968;2023-01-24T05:24:06;103307.91;;;2.03;91.67
3444;BME280;1736;52.068;6.968;2023-01-24T05:26:32;103317.38;;;2.20;92.09
3444;BME280;1736;52.068;6.968;2023-01-24T05:29:00;103306.94;;;2.13;91.89
3444;BME280;1736;52.068;6.968;2023-01-24T05:31:27;103318.31;;;2.12;90.78
3444;BME280;1736;52.068;6.968;2023-01-24T05:33:53;103321.81;;;2.11;90.42
3444;BME280;1736;52.068;6.968;2023-01-24T05:36:22;103322.72;;;2.10;90.59
3444;BME280;1736;52.068;6.968;2023-01-24T05:38:50;103327.13;;;2.02;90.71
3444;BME280;1736;52.068;6.968;2023-01-24T05:41:18;103319.28;;;1.96;91.18
3444;BME280;1736;52.068;6.968;2023-01-24T05:43:45;103325.38;;;2.01;91.54
3444;BME280;1736;52.068;6.968;2023-01-24T05:46:16;103323.63;;;2.00;91.43
3444;BME280;1736;52.068;6.968;2023-01-24T05:48:45;103317.50;;;2.02;91.64
3444;BME280;1736;52.068;6.968;2023-01-24T05:51:13;103334.91;;;2.11;91.35
3444;BME280;1736;52.068;6.968;2023-01-24T05:53:42;103326.22;;;2.06;91.05
3444;BME280;1736;52.068;6.968;2023-01-24T05:56:11;103324.47;;;2.05;90.87
3444;BME280;1736;52.068;6.968;2023-01-24T05:58:39;103325.34;;;2.07;91.18
3444;BME280;1736;52.068;6.968;2023-01-24T06:01:07;103330.56;;;2.07;90.43
3444;BME280;1736;52.068;6.968;2023-01-24T06:03:36;103333.28;;;1.95;90.29
3444;BME280;1736;52.068;6.968;2023-01-24T06:06:03;103332.38;;;1.99;90.71
3444;BME280;1736;52.068;6.968;2023-01-24T06:08:30;103343.75;;;1.95;90.27
3444;BME280;1736;52.068;6.968;2023-01-24T06:11:01;103335.00;;;1.97;90.07
3444;BME280;1736;52.068;6.968;2023-01-24T06:13:28;103342.84;;;1.99;90.61
3444;BME280;1736;52.068;6.968;2023-01-24T06:16:01;103341.13;;;1.98;90.28
3444;BME280;1736;52.068;6.968;2023-01-24T06:18:27;103345.41;;;2.06;90.25
3444;BME280;1736;52.068;6.968;2023-01-24T06:20:56;103344.59;;;2.00;90.18
3444;BME280;1736;52.068;6.968;2023-01-24T06:23:25;103344.59;;;1.97;90.01
3444;BME280;1736;52.068;6.968;2023-01-24T06:25:52;103345.50;;;1.93;90.32
3444;BME280;1736;52.068;6.968;2023-01-24T06:28:20;103356.78;;;2.07;90.71
3444;BME280;1736;52.068;6.968;2023-01-24T06:30:51;103348.94;;;2.02;90.77
3444;BME280;1736;52.068;6.968;2023-01-24T06:33:30;103358.59;;;1.96;90.20
3444;BME280;1736;52.068;6.968;2023-01-24T06:36:14;103352.50;;;1.92;89.81
3444;BME280;1736;52.068;6.968;2023-01-24T06:38:46;103355.13;;;1.91;89.91
3444;BME280;1736;52.068;6.968;2023-01-24T06:41:14;103357.69;;;1.97;89.77
3444;BME280;1736;52.068;6.968;2023-01-24T06:43:42;103354.28;;;1.87;90.24
3444;BME280;1736;52.068;6.968;2023-01-24T06:46:09;103356.88;;;1.90;90.57
3444;BME280;1736;52.068;6.968;2023-01-24T06:48:36;103355.06;;;1.97;89.65
3444;BME280;1736;52.068;6.968;2023-01-24T06:51:03;103354.22;;;1.95;90.10
3444;BME280;1736;52.068;6.968;2023-01-24T06:53:31;103357.72;;;1.94;90.29
3444;BME280;1736;52.068;6.968;2023-01-24T06:55:58;103356.84;;;1.92;90.73
3444;BME280;1736;52.068;6.968;2023-01-24T06:58:24;103355.06;;;2.00;90.03
3444;BME280;1736;52.068;6.968;2023-01-24T07:00:51;103355.06;;;1.97;90.80
3444;BME280;1736;52.068;6.968;2023-01-24T07:03:18;103358.59;;;1.96;90.65
3444;BME280;1736;52.068;6.968;2023-01-24T07:05:44;103363.81;;;1.99;90.95
3444;BME280;1736;52.068;6.968;2023-01-24T07:08:11;103364.69;;;1.96;91.20
3444;BME280;1736;52.068;6.968;2023-01-24T07:10:39;103366.34;;;2.14;89.51
3444;BME280;1736;52.068;6.968;2023-01-24T07:13:06;103369.00;;;2.05;90.09
3444;BME280;1736;52.068;6.968;2023-01-24T07:15:32;103373.38;;;2.04;89.37
3444;BME280;1736;52.068;6.968;2023-01-24T07:18:04;103371.66;;;2.02;89.77
3444;BME280;1736;52.068;6.968;2023-01-24T07:20:31;103387.31;;;2.05;89.64
3444;BME280;1736;52.068;6.968;2023-01-24T07:22:58;103383.88;;;2.01;89.27
3444;BME280;1736;52.068;6.968;2023-01-24T07:25:26;103395.25;;;1.96;89.49
3444;BME280;1736;52.068;6.968;2023-01-24T07:27:54;103389.09;;;2.03;89.13
3444;BME280;1736;52.068;6.968;2023-01-24T07:30:21;103389.09;;;2.00;88.64
3444;BME280;1736;52.068;6.968;2023-01-24T07:32:48;103384.78;;;1.93;88.74
3444;BME280;1736;52.068;6.968;2023-01-24T07:35:14;103391.75;;;1.97;88.49
3444;BME280;1736;52.068;6.968;2023-01-24T07:37:41;103383.94;;;1.91;88.58
3444;BME280;1736;52.068;6.968;2023-01-24T07:40:08;103395.28;;;1.91;88.30
3444;BME280;1736;52.068;6.968;2023-01-24T07:42:35;103403.16;;;1.84;88.78
3444;BME280;1736;52.068;6.968;2023-01-24T07:45:04;103390.91;;;1.93;89.54
3444;BME280;1736;52.068;6.968;2023-01-24T07:47:31;103393.56;;;1.86;89.32
3444;BME280;1736;52.068;6.968;2023-01-24T07:49:57;103399.66;;;1.88;88.96
3444;BME280;1736;52.068;6.968;2023-01-24T07:52:24;103402.31;;;1.82;88.81
3444;BME280;1736;52.068;6.968;2023-01-24T07:54:50;103402.25;;;1.92;88.86
3444;BME280;1736;52.068;6.968;2023-01-24T07:57:17;103407.50;;;1.92;88.80
3444;BME280;1736;52.068;6.968;2023-01-24T07:59:43;103399.66;;;1.88;88.53
3444;BME280;1736;52.068;6.968;2023-01-24T08:02:11;103407.50;;;1.88;88.35
3444;BME280;1736;52.068;6.968;2023-01-24T08:04:38;103408.38;;;1.88;88.22
3444;BME280;1736;52.068;6.968;2023-01-24T08:07:05;103416.19;;;1.93;88.11
3444;BME280;1736;52.068;6.968;2023-01-24T08:09:46;103415.34;;;1.92;88.16
3444;BME280;1736;52.068;6.968;2023-01-24T08:12:13;103416.19;;;1.93;87.74
3444;BME280;1736;52.068;6.968;2023-01-24T08:14:40;103417.09;;;1.93;87.66
3444;BME280;1736;52.068;6.968;2023-01-24T08:17:06;103423.22;;;1.88;87.82
3444;BME280;1736;52.068;6.968;2023-01-24T08:19:34;103419.69;;;1.96;87.39
3444;BME280;1736;52.068;6.968;2023-01-24T08:22:03;103416.19;;;1.96;87.04
3444;BME280;1736;52.068;6.968;2023-01-24T08:24:30;103417.97;;;1.91;87.47
3444;BME280;1736;52.068;6.968;2023-01-24T08:26:56;103427.50;;;2.01;87.72
3444;BME280;1736;52.068;6.968;2023-01-24T08:29:24;103426.66;;;1.96;87.78
3444;BME280;1736;52.068;6.968;2023-01-24T08:31:51;103427.50;;;2.01;87.25
3444;BME280;1736;52.068;6.968;2023-01-24T08:34:17;103423.09;;;2.09;87.95
3444;BME280;1736;52.068;6.968;2023-01-24T08:36:45;103426.63;;;2.05;88.01
3444;BME280;1736;52.068;6.968;2023-01-24T08:39:12;103423.97;;;2.09;86.96
3444;BME280;1736;52.068;6.968;2023-01-24T08:41:39;103424.88;;;2.07;87.31
3444;BME280;1736;52.068;6.968;2023-01-24T08:44:08;103424.88;;;2.07;87.96
3444;BME280;1736;52.068;6.968;2023-01-24T08:46:35;103429.16;;;2.18;87.04
3444;BME280;1736;52.068;6.968;2023-01-24T08:49:02;103430.03;;;2.19;86.99
3444;BME280;1736;52.068;6.968;2023-01-24T08:51:29;103436.19;;;2.10;87.53
3444;BME280;1736;52.068;6.968;2023-01-24T08:53:57;103435.28;;;2.14;86.75
3444;BME280;1736;52.068;6.968;2023-01-24T08:56:23;103438.84;;;2.06;86.56
3444;BME280;1736;52.068;6.968;2023-01-24T08:58:50;103438.81;;;2.07;87.00
3444;BME280;1736;52.068;6.968;2023-01-24T09:01:16;103446.72;;;2.03;86.62
3444;BME280;1736;52.068;6.968;2023-01-24T09:03:43;103447.63;;;2.00;86.72
3444;BME280;1736;52.068;6.968;2023-01-24T09:06:10;103454.53;;;2.07;87.00
3444;BME280;1736;52.068;6.968;2023-01-24T09:08:36;103449.28;;;2.12;86.44
3444;BME280;1736;52.068;6.968;2023-01-24T09:11:04;103453.69;;;2.10;86.82
3444;BME280;1736;52.068;6.968;2023-01-24T09:13:31;103450.13;;;2.15;86.42
3444;BME280;1736;52.068;6.968;2023-01-24T09:15:58;103456.22;;;2.22;86.04
3444;BME280;1736;52.068;6.968;2023-01-24T09:18:25;103454.47;;;2.21;86.07
3444;BME280;1736;52.068;6.968;2023-01-24T09:20:51;103460.53;;;2.26;85.94
3444;BME280;1736;52.068;6.968;2023-01-24T09:23:18;103462.25;;;2.33;86.17
3444;BME280;1736;52.068;6.968;2023-01-24T09:25:49;103455.28;;;2.30;85.69
3444;BME280;1736;52.068;6.968;2023-01-24T09:28:17;103457.91;;;2.29;86.29
3444;BME280;1736;52.068;6.968;2023-01-24T09:30:46;103460.53;;;2.26;86.04
3444;BME280;1736;52.068;6.968;2023-01-24T09:33:13;103463.16;;;2.26;86.15
3444;BME280;1736;52.068;6.968;2023-01-24T09:35:40;103464.06;;;2.26;86.30
3444;BME280;1736;52.068;6.968;2023-01-24T09:38:06;103462.25;;;2.36;86.80
3444;BME280;1736;52.068;6.968;2023-01-24T09:40:41;103467.50;;;2.36;86.06
3444;BME280;1736;52.068;6.968;2023-01-24T09:43:14;103465.78;;;2.27;85.56
3444;BME280;1736;52.068;6.968;2023-01-24T09:45:49;103468.34;;;2.38;85.80
3444;BME280;1736;52.068;6.968;2023-01-24T09:48:19;103467.50;;;2.34;85.45
3444;BME280;1736;52.068;6.968;2023-01-24T09:50:49;103471.06;;;2.24;85.89
3444;BME280;1736;52.068;6.968;2023-01-24T09:53:20;103472.75;;;2.30;85.82
3444;BME280;1736;52.068;6.968;2023-01-24T09:55:47;103471.84;;;2.40;86.08
3444;BME280;1736;52.068;6.968;2023-01-24T09:58:23;103473.56;;;2.41;85.56
3444;BME280;1736;52.068;6.968;2023-01-24T10:01:00;103470.88;;;2.53;85.44
3444;BME280;1736;52.068;6.968;2023-01-24T10:03:31;103469.22;;;2.37;85.41
3444;BME280;1736;52.068;6.968;2023-01-24T10:06:00;103471.78;;;2.49;85.70
3444;BME280;1736;52.068;6.968;2023-01-24T10:08:34;103473.56;;;2.47;85.06
3444;BME280;1736;52.068;6.968;2023-01-24T10:11:18;103459.56;;;2.48;84.99
3444;BME280;1736;52.068;6.968;2023-01-24T10:14:01;103468.31;;;2.47;85.22
3444;BME280;1736;52.068;6.968;2023-01-24T10:16:47;103464.78;;;2.51;84.50
3444;BME280;1736;52.068;6.968;2023-01-24T10:19:22;103463.03;;;2.50;84.91
3444;BME280;1736;52.068;6.968;2023-01-24T10:22:05;103462.19;;;2.46;84.52
3444;BME280;1736;52.068;6.968;2023-01-24T10:24:40;103467.41;;;2.49;85.64
3444;BME280;1736;52.068;6.968;2023-01-24T10:27:15;103463.97;;;2.44;85.09
3444;BME280;1736;52.068;6.968;2023-01-24T10:29:44;103465.63;;;2.50;85.26
3444;BME280;1736;52.068;6.968;2023-01-24T10:32:20;103466.53;;;2.47;84.95
3444;BME280;1736;52.068;6.968;2023-01-24T10:34:58;103468.31;;;2.45;85.25
3444;BME280;1736;52.068;6.968;2023-01-24T10:37:26;103471.84;;;2.34;85.34
3444;BME280;1736;52.068;6.968;2023-01-24T10:39:54;103469.22;;;2.37;84.66
3444;BME280;1736;52.068;6.968;2023-01-24T10:42:23;103466.59;;;2.37;84.99
3444;BME280;1736;52.068;6.968;2023-01-24T10:44:51;103468.31;;;2.44;84.99
3444;BME280;1736;52.068;6.968;2023-01-24T10:47:40;103462.16;;;2.52;84.70
3444;BME280;1736;52.068;6.968;2023-01-24T10:50:10;103450.88;;;2.40;85.28
3444;BME280;1736;52.068;6.968;2023-01-24T10:52:37;103449.09;;;2.42;84.90
3444;BME280;1736;52.068;6.968;2023-01-24T10:55:22;103455.13;;;2.54;85.57
3444;BME280;1736;52.068;6.968;2023-01-24T10:57:51;103456.88;;;2.55;84.18
3444;BME280;1736;52.068;6.968;2023-01-24T11:00:29;103453.44;;;2.47;84.60
3444;BME280;1736;52.068;6.968;2023-01-24T11:03:01;103453.34;;;2.62;85.05
3444;BME280;1736;52.068;6.968;2023-01-24T11:05:38;103450.69;;;2.64;84.91
3444;BME280;1736;52.068;6.968;2023-01-24T11:08:05;103446.34;;;2.61;84.52
3444;BME280;1736;52.068;6.968;2023-01-24T11:10:36;103442.81;;;2.67;84.35
3444;BME280;1736;52.068;6.968;2023-01-24T11:13:24;103433.09;;;2.79;84.09
3444;BME280;1736;52.068;6.968;2023-01-24T11:15:54;103433.09;;;2.79;84.08
3444;BME280;1736;52.068;6.968;2023-01-24T11:18:25;103429.66;;;2.68;84.19
3444;BME280;1736;52.068;6.968;2023-01-24T11:21:05;103425.31;;;2.69;84.02
3444;BME280;1736;52.068;6.968;2023-01-24T11:23:32;103428.75;;;2.75;84.37
3444;BME280;1736;52.068;6.968;2023-01-24T11:26:00;103427.94;;;2.66;84.11
3444;BME280;1736;52.068;6.968;2023-01-24T11:28:29;103427.91;;;2.72;84.35
3444;BME280;1736;52.068;6.968;2023-01-24T11:30:59;103420.94;;;2.71;83.97
3444;BME280;1736;52.068;6.968;2023-01-24T11:33:52;103406.97;;;2.69;84.63
3444;BME280;1736;52.068;6.968;2023-01-24T11:36:33;103415.63;;;2.80;83.54
3444;BME280;1736;52.068;6.968;2023-01-24T11:39:12;103414.81;;;2.72;84.03
3444;BME280;1736;52.068;6.968;2023-01-24T11:41:46;103406.00;;;2.79;83.92
3444;BME280;1736;52.068;6.968;2023-01-24T11:44:36;103402.50;;;2.81;84.66
3444;BME280;1736;52.068;6.968;2023-01-24T11:47:09;103411.06;;;2.98;83.96
3444;BME280;1736;52.068;6.968;2023-01-24T11:50:03;103411.06;;;2.98;84.35
3444;BME280;1736;52.068;6.968;2023-01-24T11:52:56;103405.81;;;3.00;83.84
3444;BME280;1736;52.068;6.968;2023-01-24T11:55:36;103401.47;;;2.96;83.28
3444;BME280;1736;52.068;6.968;2023-01-24T11:58:22;103398.66;;;3.12;82.92
3444;BME280;1736;52.068;6.968;2023-01-24T12:01:00;103395.34;;;2.98;83.08
3444;BME280;1736;52.068;6.968;2023-01-24T12:03:44;103388.16;;;3.14;82.52
3444;BME280;1736;52.068;6.968;2023-01-24T12:06:27;103384.88;;;2.91;82.85
3444;BME280;1736;52.068;6.968;2023-01-24T12:09:04;103380.63;;;2.81;83.44
3444;BME280;1736;52.068;6.968;2023-01-24T12:11:38;103383.38;;;2.66;83.03
3444;BME280;1736;52.068;6.968;2023-01-24T12:14:25;103387.75;;;2.67;83.50
3444;BME280;1736;52.068;6.968;2023-01-24T12:17:01;103388.72;;;2.54;83.79
3444;BME280;1736;52.068;6.968;2023-01-24T12:19:44;103386.06;;;2.60;82.71
3444;BME280;1736;52.068;6.968;2023-01-24T12:22:17;103385.16;;;2.67;83.33
3444;BME280;1736;52.068;6.968;2023-01-24T12:24:46;103375.50;;;2.66;82.64
3444;BME280;1736;52.068;6.968;2023-01-24T12:27:16;103379.84;;;2.70;83.72
3444;BME280;1736;52.068;6.968;2023-01-24T12:29:48;103377.28;;;2.64;83.68
3444;BME280;1736;52.068;6.968;2023-01-24T12:32:22;103382.56;;;2.61;83.03
3444;BME280;1736;52.068;6.968;2023-01-24T12:34:54;103373.81;;;2.62;83.40
3444;BME280;1736;52.068;6.968;2023-01-24T12:37:27;103374.69;;;2.61;83.55
3444;BME280;1736;52.068;6.968;2023-01-24T12:39:59;103371.22;;;2.57;83.82
3444;BME280;1736;52.068;6.968;2023-01-24T12:42:40;103376.47;;;2.57;84.46
3444;BME280;1736;52.068;6.968;2023-01-24T12:45:14;103365.19;;;2.48;84.01
3444;BME280;1736;52.068;6.968;2023-01-24T12:47:47;103357.38;;;2.42;84.65
3444;BME280;1736;52.068;6.968;2023-01-24T12:50:21;103358.06;;;2.62;84.29
3444;BME280;1736;52.068;6.968;2023-01-24T12:53:00;103361.69;;;2.46;84.86
3444;BME280;1736;52.068;6.968;2023-01-24T12:55:31;103357.34;;;2.45;84.66
3444;BME280;1736;52.068;6.968;2023-01-24T12:58:04;103351.13;;;2.58;84.54
3444;BME280;1736;52.068;6.968;2023-01-24T13:00:42;103352.00;;;2.58;83.99
3444;BME280;1736;52.068;6.968;2023-01-24T13:03:26;103363.47;;;2.47;84.58
3444;BME280;1736;52.068;6.968;2023-01-24T13:06:02;103352.81;;;2.63;84.79
3444;BME280;1736;52.068;6.968;2023-01-24T13:08:46;103344.13;;;2.60;84.46
3444;BME280;1736;52.068;6.968;2023-01-24T13:11:19;103344.16;;;2.54;84.85
3444;BME280;1736;52.068;6.968;2023-01-24T13:13:57;103343.41;;;2.43;84.99
3444;BME280;1736;52.068;6.968;2023-01-24T13:19:31;103339.78;;;2.59;84.95
3444;BME280;1736;52.068;6.968;2023-01-24T13:22:12;103339.69;;;2.66;85.06
3444;BME280;1736;52.068;6.968;2023-01-24T13:24:57;103333.72;;;2.51;84.33
3444;BME280;1736;52.068;6.968;2023-01-24T13:27:34;103332.72;;;2.62;85.29
3444;BME280;1736;52.068;6.968;2023-01-24T13:30:19;103339.88;;;2.48;85.32
3444;BME280;1736;52.068;6.968;2023-01-24T13:32:49;103337.16;;;2.59;84.66
3444;BME280;1736;52.068;6.968;2023-01-24T13:35:18;103325.06;;;2.43;85.50
3444;BME280;1736;52.068;6.968;2023-01-24T13:37:51;103323.38;;;2.33;85.56
3444;BME280;1736;52.068;6.968;2023-01-24T13:40:25;103328.50;;;2.48;86.36
3444;BME280;1736;52.068;6.968;2023-01-24T13:42:53;103338.97;;;2.51;85.26
3444;BME280;1736;52.068;6.968;2023-01-24T13:45:48;103339.81;;;2.50;85.78